sensor_id;sensor_type;location;lat;lon;timestamp;pressure;altitude;pressure_sealevel;temperature;humidity
54465;BME280;40374;49.480;20.016;2023-01-25T00:00:51;96592.81;;;-0.89;100.00
54465;BME280;40374;49.480;20.016;2023-01-25T00:03:25;96581.44;;;-0.97;100.00
54465;BME280;40374;49.480;20.016;2023-01-25T00:05:59;96599.78;;;-0.88;100.00
54465;BME280;40374;49.480;20.016;2023-01-25T00:08:27;96597.28;;;-0.97;100.00
54465;BME280;40374;49.480;20.016;2023-01-25T00:10:55;96595.81;;;-1.08;100.00
54465;BME280;40374;49.480;20.016;2023-01-25T00:13:25;96595.50;;;-1.13;100.00
54465;BME280;40374;49.480;20.016;2023-01-25T00:15:59;96607.69;;;-1.04;100.00
54465;BME280;40374;49.480;20.016;2023-01-25T00:18:27;96597.97;;;-1.20;100.00
54465;BME280;40374;49.480;20.016;2023-01-25T00:20:54;96612.63;;;-1.09;100.00
54465;BME280;40374;49.480;20.016;2023-01-25T00:23:21;96618.63;;;-1.15;100.00
54465;BME280;40374;49.480;20.016;2023-01-25T00:25:56;96609.69;;;-1.14;100.00
54465;BME280;40374;49.480;20.016;2023-01-25T00:28:24;96617.09;;;-1.18;100.00
54465;BME280;40374;49.480;20.016;2023-01-25T00:30:51;96614.66;;;-1.11;100.00
54465;BME280;40374;49.480;20.016;2023-01-25T00:35:57;96596.34;;;-1.21;100.00
54465;BME280;40374;49.480;20.016;2023-01-25T00:38:30;96604.75;;;-1.17;100.00
54465;BME280;40374;49.480;20.016;2023-01-25T00:41:00;96593.03;;;-1.31;100.00
54465;BME280;40374;49.480;20.016;2023-01-25T00:43:27;96594.19;;;-1.34;100.00
54465;BME280;40374;49.480;20.016;2023-01-25T00:46:01;96585.28;;;-1.25;100.00
54465;BME280;40374;49.480;20.016;2023-01-25T00:48:29;96592.53;;;-1.35;100.00
54465;BME280;40374;49.480;20.016;2023-01-25T00:51:01;96581.00;;;-1.34;100.00
54465;BME280;40374;49.480;20.016;2023-01-25T00:53:29;96585.44;;;-1.26;100.00
54465;BME280;40374;49.480;20.016;2023-01-25T00:55:57;96577.69;;;-1.19;100.00
54465;BME280;40374;49.480;20.016;2023-01-25T00:58:25;96576.53;;;-1.17;100.00
54465;BME280;40374;49.480;20.016;2023-01-25T01:00:59;96583.94;;;-1.12;100.00
54465;BME280;40374;49.480;20.016;2023-01-25T01:03:27;96567.78;;;-1.17;100.00
54465;BME280;40374;49.480;20.016;2023-01-25T01:06:02;96572.38;;;-1.03;100.00
54465;BME280;40374;49.480;20.016;2023-01-25T01:08:32;96563.78;;;-1.05;100.00
54465;BME280;40374;49.480;20.016;2023-01-25T01:11:01;96576.81;;;-0.95;100.00
54465;BME280;40374;49.480;20.016;2023-01-25T01:13:29;96560.50;;;-1.07;100.00
54465;BME280;40374;49.480;20.016;2023-01-25T01:16:00;96561.13;;;-0.97;100.00
54465;BME280;40374;49.480;20.016;2023-01-25T01:18:33;96569.91;;;-0.96;100.00
54465;BME280;40374;49.480;20.016;2023-01-25T01:21:01;96555.88;;;-1.05;100.00
54465;BME280;40374;49.480;20.016;2023-01-25T01:23:29;96568.41;;;-1.07;100.00
54465;BME280;40374;49.480;20.016;2023-01-25T01:26:02;96566.44;;;-1.05;100.00
54465;BME280;40374;49.480;20.016;2023-01-25T01:28:33;96571.03;;;-0.99;100.00
54465;BME280;40374;49.480;20.016;2023-01-25T01:31:02;96560.31;;;-0.97;100.00
54465;BME280;40374;49.480;20.016;2023-01-25T01:33:34;96554.88;;;-0.96;100.00
54465;BME280;40374;49.480;20.016;2023-01-25T01:36:10;96542.13;;;-0.84;100.00
54465;BME280;40374;49.480;20.016;2023-01-25T01:38:37;96529.44;;;-0.97;100.00
54465;BME280;40374;49.480;20.016;2023-01-25T01:41:06;96539.19;;;-0.89;100.00
54465;BME280;40374;49.480;20.016;2023-01-25T01:43:34;96530.28;;;-0.96;100.00
54465;BME280;40374;49.480;20.016;2023-01-25T01:46:15;96530.59;;;-0.83;100.00
54465;BME280;40374;49.480;20.016;2023-01-25T01:48:51;96538.66;;;-0.76;100.00
54465;BME280;40374;49.480;20.016;2023-01-25T01:54:13;96518.72;;;-0.87;100.00
54465;BME280;40374;49.480;20.016;2023-01-25T01:59:31;96520.50;;;-0.71;100.00
54465;BME280;40374;49.480;20.016;2023-01-25T02:02:00;96516.69;;;-0.77;100.00
54465;BME280;40374;49.480;20.016;2023-01-25T02:04:28;96529.75;;;-0.84;100.00
54465;BME280;40374;49.480;20.016;2023-01-25T02:07:20;96516.03;;;-0.79;100.00
54465;BME280;40374;49.480;20.016;2023-01-25T02:09:50;96505.19;;;-0.92;100.00
54465;BME280;40374;49.480;20.016;2023-01-25T02:12:20;96509.63;;;-0.85;100.00
54465;BME280;40374;49.480;20.016;2023-01-25T02:14:52;96531.41;;;-0.83;100.00
54465;BME280;40374;49.480;20.016;2023-01-25T02:17:31;96516.53;;;-0.75;100.00
54465;BME280;40374;49.480;20.016;2023-01-25T02:20:05;96522.16;;;-0.78;100.00
54465;BME280;40374;49.480;20.016;2023-01-25T02:22:59;96517.13;;;-0.65;100.00
54465;BME280;40374;49.480;20.016;2023-01-25T02:25:29;96513.69;;;-0.66;100.00
54465;BME280;40374;49.480;20.016;2023-01-25T02:28:11;96515.16;;;-0.63;100.00
54465;BME280;40374;49.480;20.016;2023-01-25T02:30:41;96512.38;;;-0.70;100.00
54465;BME280;40374;49.480;20.016;2023-01-25T02:33:09;96511.31;;;-0.92;100.00
54465;BME280;40374;49.480;20.016;2023-01-25T02:35:40;96505.66;;;-0.89;100.00
54465;BME280;40374;49.480;20.016;2023-01-25T02:38:12;96479.13;;;-1.04;100.00
54465;BME280;40374;49.480;20.016;2023-01-25T02:40:51;96488.84;;;-0.88;100.00
54465;BME280;40374;49.480;20.016;2023-01-25T02:43:19;96498.25;;;-0.93;100.00
54465;BME280;40374;49.480;20.016;2023-01-25T02:45:49;96491.16;;;-0.93;100.00
54465;BME280;40374;49.480;20.016;2023-01-25T02:48:20;96484.09;;;-1.00;100.00
54465;BME280;40374;49.480;20.016;2023-01-25T02:50:47;96492.81;;;-0.92;100.00
54465;BME280;40374;49.480;20.016;2023-01-25T02:53:14;96494.44;;;-0.91;100.00
54465;BME280;40374;49.480;20.016;2023-01-25T02:55:42;96484.56;;;-0.97;100.00
54465;BME280;40374;49.480;20.016;2023-01-25T02:58:09;96475.19;;;-1.08;100.00
54465;BME280;40374;49.480;20.016;2023-01-25T03:00:36;96475.84;;;-1.06;100.00
54465;BME280;40374;49.480;20.016;2023-01-25T03:03:04;96489.19;;;-0.99;100.00
54465;BME280;40374;49.480;20.016;2023-01-25T03:05:32;96480.97;;;-1.04;100.00
54465;BME280;40374;49.480;20.016;2023-01-25T03:08:00;96476.50;;;-1.12;100.00
54465;BME280;40374;49.480;20.016;2023-01-25T03:10:27;96485.97;;;-1.17;100.00
54465;BME280;40374;49.480;20.016;2023-01-25T03:12:55;96475.41;;;-1.26;100.00
54465;BME280;40374;49.480;20.016;2023-01-25T03:15:22;96483.97;;;-1.24;100.00
54465;BME280;40374;49.480;20.016;2023-01-25T03:17:50;96470.16;;;-1.42;100.00
54465;BME280;40374;49.480;20.016;2023-01-25T03:20:17;96490.91;;;-1.39;100.00
54465;BME280;40374;49.480;20.016;2023-01-25T03:22:46;96480.72;;;-1.42;100.00
54465;BME280;40374;49.480;20.016;2023-01-25T03:25:13;96466.22;;;-1.54;100.00
54465;BME280;40374;49.480;20.016;2023-01-25T03:27:51;96484.31;;;-1.35;100.00
54465;BME280;40374;49.480;20.016;2023-01-25T03:30:20;96479.38;;;-1.38;100.00
54465;BME280;40374;49.480;20.016;2023-01-25T03:32:48;96481.03;;;-1.37;100.00
54465;BME280;40374;49.480;20.016;2023-01-25T03:35:18;96484.00;;;-1.40;100.00
54465;BME280;40374;49.480;20.016;2023-01-25T03:37:46;96489.59;;;-1.35;100.00
54465;BME280;40374;49.480;20.016;2023-01-25T03:40:15;96477.56;;;-1.29;100.00
54465;BME280;40374;49.480;20.016;2023-01-25T03:42:49;96481.00;;;-1.29;100.00
54465;BME280;40374;49.480;20.016;2023-01-25T03:45:18;96474.41;;;-1.33;100.00
54465;BME280;40374;49.480;20.016;2023-01-25T03:47:45;96474.75;;;-1.28;100.00
54465;BME280;40374;49.480;20.016;2023-01-25T03:50:13;96473.88;;;-1.20;100.00
54465;BME280;40374;49.480;20.016;2023-01-25T03:52:42;96461.56;;;-1.28;100.00
54465;BME280;40374;49.480;20.016;2023-01-25T03:55:12;96474.38;;;-1.16;100.00
54465;BME280;40374;49.480;20.016;2023-01-25T03:57:42;96464.47;;;-1.14;100.00
54465;BME280;40374;49.480;20.016;2023-01-25T04:00:10;96452.59;;;-1.10;100.00
54465;BME280;40374;49.480;20.016;2023-01-25T04:02:43;96455.53;;;-1.05;100.00
54465;BME280;40374;49.480;20.016;2023-01-25T04:05:15;96449.59;;;-1.07;100.00
54465;BME280;40374;49.480;20.016;2023-01-25T04:07:43;96448.31;;;-1.11;100.00
54465;BME280;40374;49.480;20.016;2023-01-25T04:10:11;96439.69;;;-1.05;100.00
54465;BME280;40374;49.480;20.016;2023-01-25T04:12:43;96444.97;;;-1.05;100.00
54465;BME280;40374;49.480;20.016;2023-01-25T04:15:10;96448.63;;;-1.06;100.00
54465;BME280;40374;49.480;20.016;2023-01-25T04:17:38;96435.44;;;-1.14;100.00
54465;BME280;40374;49.480;20.016;2023-01-25T04:20:32;96442.03;;;-1.10;100.00
54465;BME280;40374;49.480;20.016;2023-01-25T04:22:59;96451.56;;;-1.01;100.00
54465;BME280;40374;49.480;20.016;2023-01-25T04:25:34;96449.56;;;-0.99;100.00
54465;BME280;40374;49.480;20.016;2023-01-25T04:28:02;96434.09;;;-1.02;100.00
54465;BME280;40374;49.480;20.016;2023-01-25T04:30:30;96453.88;;;-0.98;100.00
54465;BME280;40374;49.480;20.016;2023-01-25T04:33:04;96427.59;;;-0.91;100.00
54465;BME280;40374;49.480;20.016;2023-01-25T04:35:31;96446.91;;;-0.91;100.00
54465;BME280;40374;49.480;20.016;2023-01-25T04:38:00;96439.84;;;-0.98;100.00
54465;BME280;40374;49.480;20.016;2023-01-25T04:40:38;96449.22;;;-0.88;100.00
54465;BME280;40374;49.480;20.016;2023-01-25T04:43:06;96450.56;;;-0.92;100.00
54465;BME280;40374;49.480;20.016;2023-01-25T04:45:34;96442.94;;;-0.87;100.00
54465;BME280;40374;49.480;20.016;2023-01-25T04:48:09;96435.50;;;-0.83;100.00
54465;BME280;40374;49.480;20.016;2023-01-25T04:50:42;96430.25;;;-0.91;100.00
54465;BME280;40374;49.480;20.016;2023-01-25T04:53:11;96442.59;;;-0.84;100.00
54465;BME280;40374;49.480;20.016;2023-01-25T04:55:44;96443.06;;;-0.80;100.00
54465;BME280;40374;49.480;20.016;2023-01-25T04:58:13;96442.25;;;-0.80;100.00
54465;BME280;40374;49.480;20.016;2023-01-25T05:00:42;96445.56;;;-0.87;100.00
54465;BME280;40374;49.480;20.016;2023-01-25T05:03:10;96434.56;;;-0.98;100.00
54465;BME280;40374;49.480;20.016;2023-01-25T05:05:38;96445.44;;;-0.93;100.00
54465;BME280;40374;49.480;20.016;2023-01-25T05:08:10;96452.41;;;-1.00;100.00
54465;BME280;40374;49.480;20.016;2023-01-25T05:10:37;96450.25;;;-1.05;100.00
54465;BME280;40374;49.480;20.016;2023-01-25T05:13:22;96424.25;;;-1.25;100.00
54465;BME280;40374;49.480;20.016;2023-01-25T05:15:58;96440.41;;;-1.11;100.00
54465;BME280;40374;49.480;20.016;2023-01-25T05:18:26;96442.06;;;-1.18;100.00
54465;BME280;40374;49.480;20.016;2023-01-25T05:21:05;96445.53;;;-1.26;100.00
54465;BME280;40374;49.480;20.016;2023-01-25T05:23:58;96446.03;;;-1.31;100.00
54465;BME280;40374;49.480;20.016;2023-01-25T05:26:28;96442.22;;;-1.28;100.00
54465;BME280;40374;49.480;20.016;2023-01-25T05:29:13;96438.47;;;-1.26;100.00
54465;BME280;40374;49.480;20.016;2023-01-25T05:31:52;96436.78;;;-1.27;100.00
54465;BME280;40374;49.480;20.016;2023-01-25T05:34:21;96423.28;;;-1.32;100.00
54465;BME280;40374;49.480;20.016;2023-01-25T05:36:48;96437.16;;;-1.30;100.00
54465;BME280;40374;49.480;20.016;2023-01-25T05:39:16;96430.88;;;-1.37;100.00
54465;BME280;40374;49.480;20.016;2023-01-25T05:41:46;96429.25;;;-1.38;100.00
54465;BME280;40374;49.480;20.016;2023-01-25T05:44:14;96422.31;;;-1.39;100.00
54465;BME280;40374;49.480;20.016;2023-01-25T05:46:46;96430.88;;;-1.37;100.00
54465;BME280;40374;49.480;20.016;2023-01-25T05:49:16;96431.38;;;-1.33;100.00
54465;BME280;40374;49.480;20.016;2023-01-25T05:51:45;96427.09;;;-1.34;100.00
54465;BME280;40374;49.480;20.016;2023-01-25T05:54:15;96426.75;;;-1.39;100.00
54465;BME280;40374;49.480;20.016;2023-01-25T05:56:49;96412.78;;;-1.48;100.00
54465;BME280;40374;49.480;20.016;2023-01-25T05:59:17;96426.44;;;-1.36;100.00
54465;BME280;40374;49.480;20.016;2023-01-25T06:01:46;96420.13;;;-1.27;100.00
54465;BME280;40374;49.480;20.016;2023-01-25T06:04:14;96425.72;;;-1.22;100.00
54465;BME280;40374;49.480;20.016;2023-01-25T06:06:41;96421.59;;;-1.25;100.00
54465;BME280;40374;49.480;20.016;2023-01-25T06:09:11;96417.78;;;-1.14;100.00
54465;BME280;40374;49.480;20.016;2023-01-25T06:11:42;96404.56;;;-1.14;100.00
54465;BME280;40374;49.480;20.016;2023-01-25T06:14:11;96422.25;;;-1.23;100.00
54465;BME280;40374;49.480;20.016;2023-01-25T06:16:39;96414.69;;;-1.26;100.00
54465;BME280;40374;49.480;20.016;2023-01-25T06:19:27;96420.28;;;-1.20;100.00
54465;BME280;40374;49.480;20.016;2023-01-25T06:22:21;96421.59;;;-1.16;100.00
54465;BME280;40374;49.480;20.016;2023-01-25T06:24:48;96421.59;;;-1.16;100.00
54465;BME280;40374;49.480;20.016;2023-01-25T06:27:15;96428.19;;;-1.20;100.00
54465;BME280;40374;49.480;20.016;2023-01-25T06:29:43;96413.00;;;-1.18;100.00
54465;BME280;40374;49.480;20.016;2023-01-25T06:32:10;96412.69;;;-1.15;100.00
54465;BME280;40374;49.480;20.016;2023-01-25T06:34:38;96416.13;;;-1.07;100.00
54465;BME280;40374;49.480;20.016;2023-01-25T06:37:09;96421.19;;;-0.97;100.00
54465;BME280;40374;49.480;20.016;2023-01-25T06:39:36;96416.25;;;-1.00;100.00
54465;BME280;40374;49.480;20.016;2023-01-25T06:42:04;96413.47;;;-1.07;100.00
54465;BME280;40374;49.480;20.016;2023-01-25T06:44:32;96415.28;;;-1.07;100.00
54465;BME280;40374;49.480;20.016;2023-01-25T06:47:00;96414.94;;;-1.04;100.00
54465;BME280;40374;49.480;20.016;2023-01-25T06:49:28;96400.59;;;-1.10;100.00
54465;BME280;40374;49.480;20.016;2023-01-25T06:51:55;96411.28;;;-1.03;100.00
54465;BME280;40374;49.480;20.016;2023-01-25T06:54:23;96411.28;;;-1.03;100.00
54465;BME280;40374;49.480;20.016;2023-01-25T06:56:50;96409.63;;;-0.96;100.00
54465;BME280;40374;49.480;20.016;2023-01-25T06:59:17;96410.47;;;-1.04;100.00
54465;BME280;40374;49.480;20.016;2023-01-25T07:01:44;96402.25;;;-1.09;100.00
54465;BME280;40374;49.480;20.016;2023-01-25T07:04:12;96407.69;;;-1.02;100.00
54465;BME280;40374;49.480;20.016;2023-01-25T07:06:39;96407.84;;;-1.04;100.00
54465;BME280;40374;49.480;20.016;2023-01-25T07:09:09;96407.00;;;-0.96;100.00
54465;BME280;40374;49.480;20.016;2023-01-25T07:11:37;96399.22;;;-0.97;100.00
54465;BME280;40374;49.480;20.016;2023-01-25T07:14:05;96399.41;;;-0.99;100.00
54465;BME280;40374;49.480;20.016;2023-01-25T07:16:33;96400.53;;;-0.93;100.00
54465;BME280;40374;49.480;20.016;2023-01-25T07:19:04;96393.75;;;-0.88;100.00
54465;BME280;40374;49.480;20.016;2023-01-25T07:21:32;96389.50;;;-0.97;100.00
54465;BME280;40374;49.480;20.016;2023-01-25T07:24:01;96397.72;;;-0.92;100.00
54465;BME280;40374;49.480;20.016;2023-01-25T07:26:31;96384.56;;;-1.00;100.00
54465;BME280;40374;49.480;20.016;2023-01-25T07:28:58;96387.84;;;-0.98;100.00
54465;BME280;40374;49.480;20.016;2023-01-25T07:31:27;96388.19;;;-1.01;100.00
54465;BME280;40374;49.480;20.016;2023-01-25T07:33:56;96381.28;;;-1.02;100.00
54465;BME280;40374;49.480;20.016;2023-01-25T07:36:24;96387.34;;;-0.93;100.00
54465;BME280;40374;49.480;20.016;2023-01-25T07:38:56;96390.13;;;-0.95;100.00
54465;BME280;40374;49.480;20.016;2023-01-25T07:41:24;96383.91;;;-1.02;100.00
54465;BME280;40374;49.480;20.016;2023-01-25T07:43:52;96395.81;;;-1.06;100.00
54465;BME280;40374;49.480;20.016;2023-01-25T07:46:29;96379.34;;;-1.16;100.00
54465;BME280;40374;49.480;20.016;2023-01-25T07:48:57;96388.22;;;-1.09;100.00
54465;BME280;40374;49.480;20.016;2023-01-25T07:51:27;96379.84;;;-1.13;100.00
54465;BME280;40374;49.480;20.016;2023-01-25T07:53:58;96379.97;;;-1.06;100.00
54465;BME280;40374;49.480;20.016;2023-01-25T07:56:38;96375.63;;;-0.99;100.00
54465;BME280;40374;49.480;20.016;2023-01-25T07:59:11;96385.63;;;-0.86;100.00
54465;BME280;40374;49.480;20.016;2023-01-25T08:01:38;96381.53;;;-0.89;100.00
54465;BME280;40374;49.480;20.016;2023-01-25T08:04:06;96379.53;;;-0.87;100.00
54465;BME280;40374;49.480;20.016;2023-01-25T08:06:36;96366.53;;;-0.88;100.00
54465;BME280;40374;49.480;20.016;2023-01-25T08:09:16;96376.03;;;-0.79;100.00
54465;BME280;40374;49.480;20.016;2023-01-25T08:11:47;96371.09;;;-0.82;100.00
54465;BME280;40374;49.480;20.016;2023-01-25T08:14:15;96348.03;;;-0.88;100.00
54465;BME280;40374;49.480;20.016;2023-01-25T08:16:42;96328.75;;;-0.97;100.00
54465;BME280;40374;49.480;20.016;2023-01-25T08:19:10;96354.09;;;-0.79;100.00
54465;BME280;40374;49.480;20.016;2023-01-25T08:21:40;96337.88;;;-0.76;100.00
54465;BME280;40374;49.480;20.016;2023-01-25T08:24:08;96363.97;;;-0.73;100.00
54465;BME280;40374;49.480;20.016;2023-01-25T08:26:36;96352.09;;;-0.77;100.00
54465;BME280;40374;49.480;20.016;2023-01-25T08:29:05;96350.22;;;-0.69;100.00
54465;BME280;40374;49.480;20.016;2023-01-25T08:31:33;96353.69;;;-0.68;100.00
54465;BME280;40374;49.480;20.016;2023-01-25T08:34:02;96337.72;;;-0.75;100.00
54465;BME280;40374;49.480;20.016;2023-01-25T08:36:32;96336.19;;;-0.69;100.00
54465;BME280;40374;49.480;20.016;2023-01-25T08:39:03;96337.56;;;-0.50;100.00
54465;BME280;40374;49.480;20.016;2023-01-25T08:41:32;96338.59;;;-0.36;100.00
54465;BME280;40374;49.480;20.016;2023-01-25T08:44:00;96316.59;;;-0.52;100.00
54465;BME280;40374;49.480;20.016;2023-01-25T08:46:29;96328.72;;;-0.43;100.00
54465;BME280;40374;49.480;20.016;2023-01-25T08:48:59;96332.66;;;-0.38;100.00
54465;BME280;40374;49.480;20.016;2023-01-25T08:51:27;96328.72;;;-0.43;100.00
54465;BME280;40374;49.480;20.016;2023-01-25T08:53:55;96324.41;;;-0.35;100.00
54465;BME280;40374;49.480;20.016;2023-01-25T08:56:22;96324.66;;;-0.30;100.00
54465;BME280;40374;49.480;20.016;2023-01-25T08:58:50;96318.06;;;-0.11;100.00
54465;BME280;40374;49.480;20.016;2023-01-25T09:01:18;96328.66;;;0.04;100.00
54465;BME280;40374;49.480;20.016;2023-01-25T09:03:48;96321.28;;;-0.01;100.00
54465;BME280;40374;49.480;20.016;2023-01-25T09:06:17;96322.00;;;0.08;100.00
54465;BME280;40374;49.480;20.016;2023-01-25T09:08:46;96317.47;;;0.16;100.00
54465;BME280;40374;49.480;20.016;2023-01-25T09:11:18;96314.91;;;0.23;100.00
54465;BME280;40374;49.480;20.016;2023-01-25T09:13:47;96316.66;;;0.16;100.00
54465;BME280;40374;49.480;20.016;2023-01-25T09:16:17;96305.25;;;0.30;100.00
54465;BME280;40374;49.480;20.016;2023-01-25T09:18:47;96308.81;;;0.37;100.00
54465;BME280;40374;49.480;20.016;2023-01-25T09:21:17;96301.50;;;0.39;100.00
54465;BME280;40374;49.480;20.016;2023-01-25T09:23:49;96306.16;;;0.52;100.00
54465;BME280;40374;49.480;20.016;2023-01-25T09:26:39;96297.31;;;0.60;100.00
54465;BME280;40374;49.480;20.016;2023-01-25T09:29:12;96307.78;;;0.68;100.00
54465;BME280;40374;49.480;20.016;2023-01-25T09:31:39;96305.63;;;0.72;100.00
54465;BME280;40374;49.480;20.016;2023-01-25T09:34:31;96303.03;;;0.78;100.00
54465;BME280;40374;49.480;20.016;2023-01-25T09:36:58;96283.97;;;0.68;100.00
54465;BME280;40374;49.480;20.016;2023-01-25T09:39:25;96288.00;;;0.64;100.00
54465;BME280;40374;49.480;20.016;2023-01-25T09:42:18;96294.06;;;0.79;100.00
54465;BME280;40374;49.480;20.016;2023-01-25T09:45:10;96288.34;;;0.76;100.00
54465;BME280;40374;49.480;20.016;2023-01-25T09:53:10;96269.94;;;0.53;100.00
54465;BME280;40374;49.480;20.016;2023-01-25T09:55:41;96278.13;;;0.58;100.00
54465;BME280;40374;49.480;20.016;2023-01-25T09:58:23;96264.53;;;0.61;100.00
54465;BME280;40374;49.480;20.016;2023-01-25T10:01:01;96262.88;;;0.60;100.00
54465;BME280;40374;49.480;20.016;2023-01-25T10:03:49;96258.78;;;0.57;100.00
54465;BME280;40374;49.480;20.016;2023-01-25T10:06:22;96252.84;;;0.55;100.00
54465;BME280;40374;49.480;20.016;2023-01-25T10:09:01;96246.81;;;0.62;100.00
54465;BME280;40374;49.480;20.016;2023-01-25T10:11:32;96254.91;;;0.75;100.00
54465;BME280;40374;49.480;20.016;2023-01-25T10:13:59;96230.28;;;0.74;100.00
54465;BME280;40374;49.480;20.016;2023-01-25T10:16:31;96227.56;;;0.89;100.00
54465;BME280;40374;49.480;20.016;2023-01-25T10:19:13;96231.88;;;1.12;100.00
54465;BME280;40374;49.480;20.016;2023-01-25T10:21:49;96222.97;;;1.19;100.00
54465;BME280;40374;49.480;20.016;2023-01-25T10:26:55;96213.72;;;1.30;100.00
54465;BME280;40374;49.480;20.016;2023-01-25T10:29:28;96216.28;;;1.45;100.00
54465;BME280;40374;49.480;20.016;2023-01-25T10:34:46;96200.66;;;1.07;100.00
54465;BME280;40374;49.480;20.016;2023-01-25T10:37:36;96196.19;;;0.86;100.00
54465;BME280;40374;49.480;20.016;2023-01-25T10:43:01;96190.25;;;0.84;100.00
54465;BME280;40374;49.480;20.016;2023-01-25T10:45:47;96184.69;;;0.79;100.00
54465;BME280;40374;49.480;20.016;2023-01-25T10:48:20;96173.78;;;0.89;100.00
54465;BME280;40374;49.480;20.016;2023-01-25T10:50:54;96174.31;;;0.99;100.00
54465;BME280;40374;49.480;20.016;2023-01-25T10:58:40;96157.75;;;1.18;100.00
54465;BME280;40374;49.480;20.016;2023-01-25T11:01:12;96162.78;;;1.35;100.00
54465;BME280;40374;49.480;20.016;2023-01-25T11:03:41;96154.25;;;1.39;100.00
54465;BME280;40374;49.480;20.016;2023-01-25T11:06:31;96153.47;;;1.46;100.00
54465;BME280;40374;49.480;20.016;2023-01-25T11:08:59;96154.44;;;1.38;100.00
54465;BME280;40374;49.480;20.016;2023-01-25T11:11:36;96149.75;;;1.40;100.00
54465;BME280;40374;49.480;20.016;2023-01-25T11:14:17;96147.25;;;1.32;100.00
54465;BME280;40374;49.480;20.016;2023-01-25T11:16:45;96135.38;;;1.28;100.00
54465;BME280;40374;49.480;20.016;2023-01-25T11:19:39;96142.19;;;1.37;100.00
54465;BME280;40374;49.480;20.016;2023-01-25T11:22:19;96131.25;;;1.47;100.00
54465;BME280;40374;49.480;20.016;2023-01-25T11:24:48;96136.06;;;1.36;100.00
54465;BME280;40374;49.480;20.016;2023-01-25T11:27:22;96125.31;;;1.45;100.00
54465;BME280;40374;49.480;20.016;2023-01-25T11:30:13;96126.59;;;1.55;100.00
54465;BME280;40374;49.480;20.016;2023-01-25T11:32:42;96102.91;;;1.47;100.00
54465;BME280;40374;49.480;20.016;2023-01-25T11:35:14;96125.28;;;1.66;100.00
54465;BME280;40374;49.480;20.016;2023-01-25T11:38:36;96114.06;;;1.71;100.00
54465;BME280;40374;49.480;20.016;2023-01-25T11:41:09;96102.44;;;1.72;100.00
54465;BME280;40374;49.480;20.016;2023-01-25T11:44:23;96096.09;;;1.66;100.00
54465;BME280;40374;49.480;20.016;2023-01-25T11:58:37;96080.66;;;1.13;100.00
54465;BME280;40374;49.480;20.016;2023-01-25T12:01:30;96077.53;;;1.31;100.00
54465;BME280;40374;49.480;20.016;2023-01-25T12:04:18;96080.28;;;1.16;100.00
54465;BME280;40374;49.480;20.016;2023-01-25T12:07:00;96071.63;;;1.01;100.00
54465;BME280;40374;49.480;20.016;2023-01-25T12:09:56;96067.22;;;0.87;100.00
54465;BME280;40374;49.480;20.016;2023-01-25T12:12:46;96065.06;;;0.97;100.00
54465;BME280;40374;49.480;20.016;2023-01-25T12:26:58;96042.84;;;0.98;100.00
54465;BME280;40374;49.480;20.016;2023-01-25T12:29:34;96056.19;;;1.11;100.00
54465;BME280;40374;49.480;20.016;2023-01-25T12:32:07;96052.56;;;1.19;100.00
54465;BME280;40374;49.480;20.016;2023-01-25T12:34:39;96050.94;;;1.18;100.00
54465;BME280;40374;49.480;20.016;2023-01-25T12:37:21;96048.94;;;1.20;100.00
54465;BME280;40374;49.480;20.016;2023-01-25T12:39:57;96050.09;;;1.17;100.00
54465;BME280;40374;49.480;20.016;2023-01-25T12:42:43;96048.50;;;1.16;100.00
54465;BME280;40374;49.480;20.016;2023-01-25T12:45:16;96048.41;;;1.03;100.00
54465;BME280;40374;49.480;20.016;2023-01-25T12:48:28;96042.13;;;0.83;100.00
54465;BME280;40374;49.480;20.016;2023-01-25T12:50:58;96034.06;;;0.69;100.00
54465;BME280;40374;49.480;20.016;2023-01-25T12:53:34;96037.97;;;0.73;100.00
54465;BME280;40374;49.480;20.016;2023-01-25T12:56:05;96040.88;;;0.78;100.00
54465;BME280;40374;49.480;20.016;2023-01-25T13:04:48;96030.25;;;0.72;100.00
54465;BME280;40374;49.480;20.016;2023-01-25T13:12:52;96015.75;;;0.46;100.00
54465;BME280;40374;49.480;20.016;2023-01-25T13:15:42;96018.66;;;0.51;100.00
54465;BME280;40374;49.480;20.016;2023-01-25T13:20:57;96000.75;;;0.53;100.00
54465;BME280;40374;49.480;20.016;2023-01-25T13:23:36;95995.69;;;0.58;100.00
54465;BME280;40374;49.480;20.016;2023-01-25T13:28:51;95982.59;;;0.50;100.00
54465;BME280;40374;49.480;20.016;2023-01-25T13:37:28;95978.28;;;0.43;100.00
54465;BME280;40374;49.480;20.016;2023-01-25T13:40:35;95978.91;;;0.45;100.00
54465;BME280;40374;49.480;20.016;2023-01-25T13:45:44;95975.63;;;0.43;100.00
54465;BME280;40374;49.480;20.016;2023-01-25T13:48:18;95976.63;;;0.42;100.00
54465;BME280;40374;49.480;20.016;2023-01-25T13:51:03;95981.38;;;0.25;100.00
54465;BME280;40374;49.480;20.016;2023-01-25T13:53:32;95981.31;;;0.18;100.00
54465;BME280;40374;49.480;20.016;2023-01-25T13:56:02;95979.69;;;0.17;100.00
54465;BME280;40374;49.480;20.016;2023-01-25T13:58:32;95983.16;;;0.17;100.00
54465;BME280;40374;49.480;20.016;2023-01-25T14:01:20;95974.53;;;0.09;100.00
54465;BME280;40374;49.480;20.016;2023-01-25T14:03:58;95965.69;;;0.02;100.00
54465;BME280;40374;49.480;20.016;2023-01-25T14:06:35;95965.19;;;0.13;100.00
54465;BME280;40374;49.480;20.016;2023-01-25T14:09:12;95963.31;;;0.07;100.00
54465;BME280;40374;49.480;20.016;2023-01-25T14:11:57;95957.00;;;0.08;100.00
54465;BME280;40374;49.480;20.016;2023-01-25T14:14:29;95964.31;;;0.06;100.00
54465;BME280;40374;49.480;20.016;2023-01-25T14:17:20;95957.81;;;0.08;100.00
54465;BME280;40374;49.480;20.016;2023-01-25T14:19:54;95957.50;;;-0.04;100.00
54465;BME280;40374;49.480;20.016;2023-01-25T14:22:31;95955.16;;;-0.13;100.00
54465;BME280;40374;49.480;20.016;2023-01-25T14:25:19;95943.28;;;-0.24;100.00
54465;BME280;40374;49.480;20.016;2023-01-25T14:27:59;95958.03;;;-0.30;100.00